Glen Robertson, Canada
Current Conditions -  °F | °C
As of 7:00 PM on Friday 19 Dec 2014 (Local Time) from CYMX Reporting Station
Clear Clear  
Wind Chill:   Ceiling: Unl
Heat Index: 18°   Visibility: 25mi
Dew Point: 10°   Wind: 8mph
Humidity: 73%   Direction: 250°WSW
Pressure: 30.21"   Gusts: NA
Location:  45.35°N, 74.5°W
Report Text: CYMX 200000Z 25007KT 220V290 25SM SKC M08/M12 A3021 RMK SLP236
Loading
Personal Weather Stations






























Interactive Weather Map New forecast layout! Learn more

10-Day Weather Forecast

Advertisements
Track Severe Weather on mobile